Time;durP1;ratioP1;P1;durP2;ratioP2;P2;SDS_P1;SDS_P2;PMS_P1;PMS_P2;Temp;Humidity;BMP_temperature;BMP_pressure;BME280_temperature;BME280_humidity;BME280_pressure;Samples;Min_cycle;Max_cycle;Signal;HPM_P1;HPM_P2
2023/07/20 00:02:20;;;;;;;3.03;2.72;;;16.30;99.90;;;;;;6178385;23;20024;-79
2023/07/20 00:04:45;;;;;;;8.15;3.03;;;16.30;99.90;;;;;;6177378;23;19997;-80
2023/07/20 00:07:11;;;;;;;2.47;2.15;;;16.40;99.90;;;;;;6175469;23;20001;-82
2023/07/20 00:09:37;;;;;;;2.22;1.90;;;16.30;99.90;;;;;;6177758;23;20017;-81
2023/07/20 00:12:06;;;;;;;2.08;1.70;;;16.30;99.90;;;;;;6178630;23;20012;-80
2023/07/20 00:14:32;;;;;;;2.15;1.70;;;16.30;99.90;;;;;;6178703;23;20036;-80
2023/07/20 00:16:57;;;;;;;2.33;1.88;;;16.40;99.90;;;;;;6178896;23;20009;-80
2023/07/20 00:19:24;;;;;;;4.18;1.85;;;16.30;99.90;;;;;;6179513;23;20005;-80
2023/07/20 00:21:50;;;;;;;8.80;2.47;;;16.40;99.90;;;;;;6178828;23;20020;-79
2023/07/20 00:24:16;;;;;;;4.18;2.55;;;16.30;99.90;;;;;;6177138;23;20340;-79
2023/07/20 00:26:42;;;;;;;3.20;2.28;;;16.30;99.90;;;;;;6178711;23;20383;-80
2023/07/20 00:29:07;;;;;;;3.00;2.40;;;16.20;99.90;;;;;;6179485;23;20087;-80
2023/07/20 00:31:34;;;;;;;6.93;2.70;;;16.10;99.90;;;;;;6179222;23;19997;-80
2023/07/20 00:34:01;;;;;;;4.15;2.83;;;16.10;99.90;;;;;;6179158;23;20015;-81
2023/07/20 00:36:27;;;;;;;3.80;2.75;;;16.10;99.90;;;;;;6178889;23;20009;-80
2023/07/20 00:38:52;;;;;;;4.45;3.10;;;16.00;99.90;;;;;;6178907;23;20498;-80
2023/07/20 00:41:18;;;;;;;10.13;3.42;;;16.00;99.90;;;;;;6178343;23;20454;-80
2023/07/20 00:43:43;;;;;;;9.80;3.80;;;15.90;99.90;;;;;;6178533;23;20037;-80
2023/07/20 00:46:09;;;;;;;8.00;3.40;;;15.90;99.90;;;;;;6178798;23;20009;-80
2023/07/20 00:48:36;;;;;;;8.23;3.95;;;15.90;99.90;;;;;;6177677;23;20105;-80
2023/07/20 00:51:02;;;;;;;7.00;3.60;;;15.90;99.90;;;;;;6178384;23;20014;-80
2023/07/20 00:53:28;;;;;;;4.15;3.65;;;15.90;99.90;;;;;;6178562;23;20012;-80
2023/07/20 00:55:54;;;;;;;9.27;4.53;;;15.90;99.90;;;;;;6179072;23;20005;-80
2023/07/20 00:58:20;;;;;;;5.18;3.47;;;15.90;99.90;;;;;;6178624;23;20327;-80
2023/07/20 01:00:47;;;;;;;3.13;2.83;;;15.90;99.90;;;;;;6178365;23;20032;-81
2023/07/20 01:03:13;;;;;;;4.40;2.90;;;15.90;99.90;;;;;;6178654;23;20032;-80
2023/07/20 01:05:59;;;;;;;4.30;3.00;;;15.90;99.90;;;;;;6179080;23;20320;-80
2023/07/20 01:08:36;;;;;;;5.70;3.53;;;15.90;99.90;;;;;;6177599;23;20016;-79
2023/07/20 01:11:24;;;;;;;2.67;2.38;;;15.90;99.90;;;;;;6177617;23;20041;-80
2023/07/20 01:13:50;;;;;;;6.45;3.17;;;15.90;99.90;;;;;;6178632;23;20016;-79
2023/07/20 01:16:16;;;;;;;3.25;2.95;;;15.90;99.90;;;;;;6178736;23;20009;-80
2023/07/20 01:18:41;;;;;;;2.92;2.55;;;15.90;99.90;;;;;;6176425;23;20005;-80
2023/07/20 01:21:15;;;;;;;5.30;3.45;;;15.90;99.90;;;;;;6177984;23;20379;-81
2023/07/20 01:23:43;;;;;;;2.67;2.25;;;15.90;99.90;;;;;;6178965;23;20012;-80
2023/07/20 01:26:40;;;;;;;4.05;2.63;;;15.90;99.90;;;;;;6177976;23;20033;-80
2023/07/20 01:29:31;;;;;;;3.72;2.53;;;15.90;99.90;;;;;;6176663;23;20005;-80
2023/07/20 01:31:57;;;;;;;4.03;2.92;;;15.90;99.90;;;;;;6177325;23;20012;-81
2023/07/20 01:34:24;;;;;;;3.15;2.58;;;15.90;99.90;;;;;;6178687;23;20005;-80
2023/07/20 01:36:52;;;;;;;4.25;2.30;;;15.90;99.90;;;;;;6178995;23;19998;-80
2023/07/20 01:39:19;;;;;;;2.63;2.42;;;15.90;99.90;;;;;;6179116;23;20101;-79
2023/07/20 01:41:45;;;;;;;2.42;2.08;;;15.90;99.90;;;;;;6178373;23;20063;-80
2023/07/20 01:44:13;;;;;;;2.70;2.47;;;15.90;99.90;;;;;;6177079;23;20025;-81
2023/07/20 01:46:39;;;;;;;3.85;2.85;;;15.90;99.90;;;;;;6177511;23;20009;-81
2023/07/20 01:49:05;;;;;;;3.65;2.55;;;15.80;99.90;;;;;;6178522;23;20027;-80
2023/07/20 01:51:30;;;;;;;2.55;2.10;;;15.80;99.90;;;;;;6177265;23;20239;-79
2023/07/20 01:53:56;;;;;;;4.35;2.55;;;15.80;99.90;;;;;;6177839;23;20005;-80
2023/07/20 01:56:21;;;;;;;5.13;2.58;;;15.90;99.90;;;;;;6178354;23;20012;-80
2023/07/20 01:58:50;;;;;;;2.83;2.50;;;15.90;99.90;;;;;;6177360;23;20039;-81
2023/07/20 02:01:15;;;;;;;3.85;2.50;;;15.90;99.90;;;;;;6177200;23;20020;-80
2023/07/20 02:03:41;;;;;;;2.53;2.33;;;15.80;99.90;;;;;;6177478;23;20017;-80
2023/07/20 02:06:08;;;;;;;3.35;2.47;;;15.80;99.90;;;;;;6152057;23;20008;-80
2023/07/20 02:08:33;;;;;;;6.22;2.40;;;15.80;99.90;;;;;;6178097;23;20044;-80
2023/07/20 02:10:59;;;;;;;2.60;2.40;;;15.80;99.90;;;;;;6176084;23;20001;-80
2023/07/20 02:13:24;;;;;;;8.80;2.97;;;15.80;99.90;;;;;;6151664;23;20387;-80
2023/07/20 02:15:50;;;;;;;6.03;3.13;;;15.80;99.90;;;;;;6178236;23;20079;-79
2023/07/20 02:18:16;;;;;;;4.78;2.90;;;15.80;99.90;;;;;;6177324;23;20005;-80
2023/07/20 02:20:42;;;;;;;2.63;2.40;;;15.70;99.90;;;;;;6151612;23;20009;-79
2023/07/20 02:23:08;;;;;;;3.10;2.35;;;15.70;99.90;;;;;;6177235;23;20012;-81
2023/07/20 02:25:33;;;;;;;4.68;2.67;;;15.70;99.90;;;;;;6176981;23;20367;-79
2023/07/20 02:27:59;;;;;;;2.17;2.00;;;15.70;99.90;;;;;;6177476;23;20005;-80
2023/07/20 02:30:25;;;;;;;2.95;2.25;;;15.70;99.90;;;;;;6177030;23;20088;-80
2023/07/20 02:32:50;;;;;;;4.18;2.53;;;15.70;99.90;;;;;;6177595;23;20060;-80
2023/07/20 02:35:16;;;;;;;3.30;2.25;;;15.70;99.90;;;;;;6177432;23;20001;-79
2023/07/20 02:37:45;;;;;;;7.43;2.58;;;15.70;99.90;;;;;;6177363;23;20001;-83
2023/07/20 02:40:11;;;;;;;3.42;2.42;;;15.80;99.90;;;;;;6177817;23;20432;-80
2023/07/20 02:42:37;;;;;;;3.30;2.78;;;15.70;99.90;;;;;;6176532;23;20020;-81
2023/07/20 02:45:04;;;;;;;3.95;2.30;;;15.80;99.90;;;;;;6178028;23;20004;-81
2023/07/20 02:47:29;;;;;;;4.03;3.50;;;15.80;99.90;;;;;;6178305;23;20020;-82
2023/07/20 02:49:57;;;;;;;2.67;2.30;;;15.80;99.90;;;;;;6176429;23;20420;-84
2023/07/20 02:52:23;;;;;;;6.70;2.72;;;15.70;99.90;;;;;;6176558;23;20004;-81
2023/07/20 02:54:48;;;;;;;2.55;2.35;;;15.70;99.90;;;;;;6177426;23;20005;-80
2023/07/20 02:57:14;;;;;;;7.45;3.38;;;15.70;99.90;;;;;;6177326;23;20071;-80
2023/07/20 02:59:40;;;;;;;4.80;3.13;;;15.70;99.90;;;;;;6177446;23;20009;-80
2023/07/20 03:02:09;;;;;;;3.70;2.97;;;15.70;99.90;;;;;;6176947;23;20123;-83
2023/07/20 03:04:36;;;;;;;8.60;3.67;;;15.60;99.90;;;;;;6177542;23;20028;-80
2023/07/20 03:07:04;;;;;;;4.30;2.97;;;15.70;99.90;;;;;;6177515;23;20024;-80
2023/07/20 03:09:29;;;;;;;5.90;3.47;;;15.60;99.90;;;;;;6177011;23;20021;-79
2023/07/20 03:11:55;;;;;;;3.35;2.97;;;15.60;99.90;;;;;;6177107;23;20051;-80
2023/07/20 03:14:23;;;;;;;4.00;2.78;;;15.50;99.90;;;;;;6178045;23;20076;-83
2023/07/20 03:16:49;;;;;;;6.13;3.78;;;15.50;99.90;;;;;;6176027;23;20444;-79
2023/07/20 03:19:43;;;;;;;;;;;;;;;;;;;;;
2023/07/20 03:22:24;;;;;;;3.10;2.75;;;15.50;99.90;;;;;;6174248;23;20530;-81
2023/07/20 03:24:51;;;;;;;6.05;3.95;;;15.50;99.90;;;;;;6176104;23;20455;-79
2023/07/20 03:27:19;;;;;;;5.15;2.55;;;15.50;99.90;;;;;;6178125;23;20059;-79
2023/07/20 03:29:45;;;;;;;6.32;3.28;;;15.40;99.90;;;;;;6177603;23;20044;-79
2023/07/20 03:32:10;;;;;;;4.40;2.72;;;15.40;99.90;;;;;;6175812;23;20001;-79
2023/07/20 03:34:41;;;;;;;3.45;2.70;;;15.40;99.90;;;;;;6178497;23;20371;-80
2023/07/20 03:37:06;;;;;;;4.40;3.10;;;15.40;99.90;;;;;;6177962;23;20005;-78
2023/07/20 03:39:32;;;;;;;4.43;2.70;;;15.40;99.90;;;;;;6177994;23;20005;-78
2023/07/20 03:41:59;;;;;;;3.67;3.17;;;15.40;99.90;;;;;;6177150;23;20063;-78
2023/07/20 03:44:24;;;;;;;5.55;2.97;;;15.40;99.90;;;;;;6178251;23;20367;-79
2023/07/20 03:46:50;;;;;;;3.17;2.72;;;15.40;99.90;;;;;;6178646;23;20035;-78
2023/07/20 03:49:17;;;;;;;4.53;2.80;;;15.40;99.90;;;;;;6179465;23;20326;-81
2023/07/20 03:51:43;;;;;;;3.22;2.92;;;15.40;99.90;;;;;;6180673;23;20163;-79
2023/07/20 03:54:09;;;;;;;2.40;2.20;;;15.40;99.90;;;;;;6178741;23;20040;-79
2023/07/20 03:56:35;;;;;;;2.53;2.33;;;15.40;99.90;;;;;;6153388;23;20005;-78
2023/07/20 03:59:01;;;;;;;3.45;2.75;;;15.40;99.90;;;;;;6153815;23;20011;-78
2023/07/20 04:01:29;;;;;;;7.53;4.88;;;15.40;99.90;;;;;;6152676;23;19994;-81
2023/07/20 04:03:55;;;;;;;3.83;2.75;;;15.40;99.90;;;;;;6179107;23;20084;-79
2023/07/20 04:06:21;;;;;;;3.90;3.03;;;15.40;99.90;;;;;;6180006;23;20028;-78
2023/07/20 04:08:49;;;;;;;3.58;2.80;;;15.40;99.90;;;;;;6179115;23;21474;-78
2023/07/20 04:11:15;;;;;;;4.30;2.90;;;15.40;99.90;;;;;;6178620;23;20053;-78
2023/07/20 04:13:44;;;;;;;4.90;3.72;;;15.50;99.90;;;;;;6178418;23;20001;-81
2023/07/20 04:16:09;;;;;;;6.40;2.97;;;15.40;99.90;;;;;;6179250;23;20328;-79
2023/07/20 04:18:35;;;;;;;3.72;2.47;;;15.50;99.90;;;;;;6179346;23;20005;-79
2023/07/20 04:21:01;;;;;;;2.58;2.38;;;15.50;99.90;;;;;;6178721;23;20986;-78
2023/07/20 04:23:26;;;;;;;2.50;2.30;;;15.50;99.90;;;;;;6179108;23;20347;-78
2023/07/20 04:25:59;;;;;;;3.17;2.20;;;15.50;99.90;;;;;;6177082;23;20005;-81
2023/07/20 04:28:24;;;;;;;2.97;2.33;;;15.60;99.90;;;;;;6178378;23;20005;-80
2023/07/20 04:30:51;;;;;;;3.42;2.80;;;15.60;99.90;;;;;;6178545;23;20012;-78
2023/07/20 04:33:18;;;;;;;5.93;3.42;;;15.60;99.90;;;;;;6179124;23;20005;-78
2023/07/20 04:35:54;;;;;;;4.97;3.67;;;15.60;99.90;;;;;;6178682;23;20202;-78
2023/07/20 04:38:21;;;;;;;7.30;3.15;;;15.60;99.90;;;;;;6175759;23;20005;-78
2023/07/20 04:40:48;;;;;;;3.38;3.03;;;15.70;99.90;;;;;;6179259;23;20005;-79
2023/07/20 04:43:17;;;;;;;4.15;3.47;;;15.60;99.90;;;;;;6178916;23;20184;-78
2023/07/20 04:45:43;;;;;;;10.27;3.60;;;15.60;99.90;;;;;;6177304;23;20428;-79
2023/07/20 04:48:12;;;;;;;6.53;3.35;;;15.60;99.90;;;;;;6178319;23;20001;-80
2023/07/20 04:50:40;;;;;;;6.03;3.75;;;15.60;99.90;;;;;;6176687;23;20004;-79
2023/07/20 04:53:05;;;;;;;4.55;3.25;;;15.60;99.90;;;;;;6178184;23;20250;-79
2023/07/20 04:55:33;;;;;;;10.13;3.95;;;15.60;99.90;;;;;;6177958;23;19997;-78
2023/07/20 04:58:01;;;;;;;8.10;4.10;;;15.60;99.90;;;;;;6152213;23;20059;-78
2023/07/20 05:00:35;;;;;;;5.47;3.63;;;15.60;99.90;;;;;;6178470;23;20017;-79
2023/07/20 05:03:01;;;;;;;4.68;3.38;;;15.60;99.90;;;;;;6177815;23;20229;-79
2023/07/20 05:05:26;;;;;;;6.97;3.17;;;15.60;99.90;;;;;;6177709;23;20005;-79
2023/07/20 05:07:52;;;;;;;11.05;4.35;;;15.60;99.90;;;;;;6178171;23;20367;-81
2023/07/20 05:10:18;;;;;;;5.57;3.88;;;15.70;99.90;;;;;;6177138;23;20020;-79
2023/07/20 05:12:47;;;;;;;5.78;3.60;;;15.70;99.90;;;;;;6177903;23;20040;-78
2023/07/20 05:15:13;;;;;;;7.10;4.70;;;15.70;99.90;;;;;;6150791;23;20027;-79
2023/07/20 05:17:39;;;;;;;7.43;4.00;;;15.70;99.90;;;;;;6150906;23;19997;-80
2023/07/20 05:20:13;;;;;;;7.25;3.47;;;15.70;99.90;;;;;;6176427;23;20001;-81
2023/07/20 05:22:40;;;;;;;5.78;3.08;;;15.70;99.90;;;;;;6177175;23;20013;-79
2023/07/20 05:25:10;;;;;;;4.50;2.55;;;15.70;99.90;;;;;;6177706;23;20511;-78
2023/07/20 05:27:39;;;;;;;2.45;2.25;;;15.80;99.90;;;;;;6178576;23;20319;-81
2023/07/20 05:30:07;;;;;;;3.78;2.60;;;15.80;99.90;;;;;;6178032;23;20005;-79
2023/07/20 05:32:33;;;;;;;3.00;2.55;;;15.80;99.90;;;;;;6177547;23;20021;-79
2023/07/20 05:34:58;;;;;;;4.78;2.95;;;15.90;99.90;;;;;;6177510;23;20001;-79
2023/07/20 05:37:24;;;;;;;2.90;2.28;;;15.90;99.90;;;;;;6178451;23;20419;-80
2023/07/20 05:39:50;;;;;;;3.85;2.33;;;15.90;99.90;;;;;;6177811;23;20069;-79
2023/07/20 05:42:15;;;;;;;7.38;3.53;;;15.90;99.90;;;;;;6177206;23;20096;-79
2023/07/20 05:44:41;;;;;;;4.38;3.08;;;15.90;99.90;;;;;;6178447;23;20639;-79
2023/07/20 05:47:07;;;;;;;6.07;3.72;;;15.90;99.90;;;;;;6178109;23;20005;-80
2023/07/20 05:49:35;;;;;;;8.10;5.15;;;16.00;99.90;;;;;;6177862;23;20005;-79
2023/07/20 05:52:00;;;;;;;11.02;4.10;;;16.00;99.90;;;;;;6177415;23;19997;-79
2023/07/20 05:54:26;;;;;;;5.63;3.15;;;16.00;99.90;;;;;;6177408;23;20015;-80
2023/07/20 05:56:53;;;;;;;3.83;3.47;;;15.90;99.90;;;;;;6170644;23;20016;-80
2023/07/20 05:59:19;;;;;;;2.90;2.60;;;16.00;99.90;;;;;;6175327;23;20001;-79
2023/07/20 06:01:48;;;;;;;8.27;3.88;;;16.00;99.90;;;;;;6174308;23;20009;-79
2023/07/20 06:04:14;;;;;;;7.78;4.00;;;16.00;99.90;;;;;;6177630;23;20391;-80
2023/07/20 06:06:40;;;;;;;5.47;3.03;;;16.00;99.90;;;;;;6176864;23;20005;-80
2023/07/20 06:09:11;;;;;;;4.22;3.00;;;16.00;99.90;;;;;;6175971;23;20020;-80
2023/07/20 06:11:38;;;;;;;5.35;3.45;;;16.10;99.90;;;;;;6174379;23;20036;-81
2023/07/20 06:14:04;;;;;;;2.60;2.40;;;16.10;99.90;;;;;;6150241;23;20011;-80
2023/07/20 06:16:30;;;;;;;20.25;4.80;;;16.10;99.90;;;;;;6175754;23;20005;-80
2023/07/20 06:18:56;;;;;;;6.60;4.60;;;16.20;99.90;;;;;;6176712;23;20001;-80
2023/07/20 06:21:21;;;;;;;18.23;5.38;;;16.20;99.90;;;;;;6175247;23;20447;-80
2023/07/20 06:23:47;;;;;;;9.90;4.22;;;16.10;99.90;;;;;;6177171;23;20008;-81
2023/07/20 06:26:12;;;;;;;13.32;5.50;;;16.10;99.90;;;;;;6150508;23;20033;-80
2023/07/20 06:28:38;;;;;;;12.95;5.78;;;16.10;99.90;;;;;;6176821;23;19998;-80
2023/07/20 06:31:04;;;;;;;12.68;5.50;;;16.10;99.90;;;;;;6176042;23;20415;-79
2023/07/20 06:33:29;;;;;;;10.43;5.45;;;16.10;99.90;;;;;;6177759;23;20005;-79
2023/07/20 06:35:56;;;;;;;13.48;5.28;;;16.10;99.90;;;;;;6176293;23;20371;-81
2023/07/20 06:38:23;;;;;;;4.93;3.72;;;16.10;99.90;;;;;;6177701;23;20079;-80
2023/07/20 06:40:49;;;;;;;7.20;3.92;;;16.10;99.90;;;;;;6177103;23;19997;-80
2023/07/20 06:43:16;;;;;;;7.85;3.50;;;16.10;99.90;;;;;;6176427;23;20017;-80
2023/07/20 06:45:42;;;;;;;10.70;4.88;;;16.20;99.90;;;;;;6176836;23;20397;-79
2023/07/20 06:48:08;;;;;;;10.68;4.60;;;16.20;99.90;;;;;;6175960;23;20416;-80
2023/07/20 06:50:33;;;;;;;11.55;5.82;;;16.30;99.90;;;;;;6175435;23;20092;-80
2023/07/20 06:53:00;;;;;;;10.85;5.30;;;16.30;99.90;;;;;;6150257;23;20005;-80
2023/07/20 06:55:26;;;;;;;7.82;5.35;;;16.30;99.90;;;;;;6177059;23;19997;-80
2023/07/20 06:57:51;;;;;;;4.05;3.50;;;16.30;99.90;;;;;;6175761;23;19998;-81
2023/07/20 07:00:17;;;;;;;13.43;5.82;;;16.30;99.90;;;;;;6175978;23;20001;-79
2023/07/20 07:02:43;;;;;;;11.02;5.72;;;16.40;99.90;;;;;;6175126;23;20071;-80
2023/07/20 07:05:09;;;;;;;8.50;4.90;;;16.40;99.90;;;;;;6175269;23;20005;-81
2023/07/20 07:07:35;;;;;;;8.35;4.13;;;16.40;99.90;;;;;;6177080;23;20016;-80
2023/07/20 07:10:01;;;;;;;11.75;6.00;;;16.40;99.90;;;;;;6176167;23;20017;-80
2023/07/20 07:12:29;;;;;;;4.93;4.47;;;16.40;99.90;;;;;;6176919;23;20036;-82
2023/07/20 07:14:55;;;;;;;6.22;3.95;;;16.40;99.90;;;;;;6175932;23;20028;-80
2023/07/20 07:17:21;;;;;;;10.30;4.97;;;16.40;99.90;;;;;;6176975;23;20063;-79
2023/07/20 07:19:46;;;;;;;8.63;4.07;;;16.40;99.90;;;;;;6175960;23;20737;-80
2023/07/20 07:22:13;;;;;;;24.75;8.32;;;16.40;99.90;;;;;;6175227;23;20017;-81
2023/07/20 07:24:41;;;;;;;12.40;8.85;;;16.50;99.90;;;;;;6176153;23;20025;-81
2023/07/20 07:27:08;;;;;;;8.32;5.63;;;16.40;99.90;;;;;;6177263;23;20448;-81
2023/07/20 07:29:33;;;;;;;8.52;4.63;;;16.30;99.90;;;;;;6177530;23;20038;-80
2023/07/20 07:31:59;;;;;;;4.72;4.07;;;16.30;99.90;;;;;;6175541;23;20478;-80
2023/07/20 07:34:25;;;;;;;17.60;9.80;;;16.20;99.90;;;;;;6176963;23;20423;-79
2023/07/20 07:36:51;;;;;;;20.73;9.40;;;16.20;99.90;;;;;;6172734;23;20023;-80
2023/07/20 07:39:16;;;;;;;14.32;9.82;;;16.10;99.90;;;;;;6176238;23;20083;-80
2023/07/20 07:41:42;;;;;;;19.17;8.05;;;16.00;99.90;;;;;;6174125;23;20031;-79
2023/07/20 07:44:07;;;;;;;13.85;6.28;;;15.90;99.90;;;;;;6150712;23;20079;-83
2023/07/20 07:46:33;;;;;;;17.92;6.30;;;15.60;99.90;;;;;;6176971;23;20016;-79
2023/07/20 07:48:59;;;;;;;11.32;6.63;;;15.50;99.90;;;;;;6176282;23;20011;-79
2023/07/20 07:51:26;;;;;;;13.48;7.05;;;15.20;99.90;;;;;;6176249;23;20398;-84
2023/07/20 07:53:52;;;;;;;11.50;5.47;;;15.10;99.90;;;;;;6175443;23;20005;-83
2023/07/20 07:56:22;;;;;;;13.70;7.22;;;14.90;99.90;;;;;;6176064;23;20059;-80
2023/07/20 07:58:48;;;;;;;12.75;6.40;;;14.80;99.90;;;;;;6178045;23;20060;-79
2023/07/20 08:01:14;;;;;;;9.60;5.50;;;14.80;99.90;;;;;;6177679;23;20005;-81
2023/07/20 08:03:40;;;;;;;6.88;4.10;;;14.80;99.90;;;;;;6175661;23;20017;-80
2023/07/20 08:06:06;;;;;;;8.15;4.32;;;14.70;99.90;;;;;;6174759;23;20008;-79
2023/07/20 08:08:32;;;;;;;8.00;4.85;;;14.60;99.90;;;;;;6176896;23;20435;-80
2023/07/20 08:10:58;;;;;;;11.32;5.15;;;14.60;99.90;;;;;;6177300;23;20000;-81
2023/07/20 08:13:24;;;;;;;7.13;5.40;;;14.60;99.90;;;;;;6149776;23;20011;-79
2023/07/20 08:15:54;;;;;;;10.70;6.53;;;14.60;99.90;;;;;;6177553;23;20149;-78
2023/07/20 08:18:19;;;;;;;8.75;4.60;;;14.60;99.90;;;;;;6152372;23;20092;-79
2023/07/20 08:20:46;;;;;;;8.95;5.03;;;14.70;99.90;;;;;;6153541;23;20029;-81
2023/07/20 08:23:13;;;;;;;8.75;6.22;;;14.70;99.90;;;;;;6177554;23;20108;-83
2023/07/20 08:25:43;;;;;;;9.25;6.35;;;14.70;99.90;;;;;;6177434;23;20319;-79
2023/07/20 08:28:10;;;;;;;12.68;6.40;;;14.70;99.90;;;;;;6178084;23;20001;-82
2023/07/20 08:30:44;;;;;;;7.40;5.40;;;14.70;99.90;;;;;;6177349;23;20450;-80
2023/07/20 08:33:11;;;;;;;8.05;5.05;;;14.70;99.90;;;;;;6180626;23;20408;-80
2023/07/20 08:35:37;;;;;;;13.40;6.13;;;14.60;99.90;;;;;;6179789;23;20067;-80
2023/07/20 08:38:04;;;;;;;10.82;5.10;;;14.60;99.90;;;;;;6178620;23;19997;-80
2023/07/20 08:40:33;;;;;;;10.70;6.20;;;14.50;99.90;;;;;;6181073;23;20096;-81
2023/07/20 08:43:02;;;;;;;13.07;6.57;;;14.60;99.90;;;;;;6152235;23;20028;-81
2023/07/20 08:45:31;;;;;;;8.77;6.60;;;14.60;99.90;;;;;;6179889;23;20127;-79
2023/07/20 08:47:59;;;;;;;10.05;7.65;;;14.70;99.90;;;;;;6178591;23;20001;-81
2023/07/20 08:50:28;;;;;;;9.68;7.35;;;14.70;99.90;;;;;;6177491;23;20013;-79
2023/07/20 08:52:57;;;;;;;12.30;10.63;;;14.70;99.90;;;;;;6176787;23;20028;-82
2023/07/20 08:55:23;;;;;;;12.07;9.10;;;14.70;99.90;;;;;;6175996;23;20040;-80
2023/07/20 08:57:52;;;;;;;10.98;9.15;;;14.80;99.90;;;;;;6178943;23;19997;-80
2023/07/20 09:00:20;;;;;;;13.07;9.10;;;14.80;99.90;;;;;;6176510;23;20747;-79
2023/07/20 09:02:47;;;;;;;13.27;9.18;;;14.90;99.90;;;;;;6179165;23;20056;-81
2023/07/20 09:05:16;;;;;;;7.78;6.72;;;15.00;99.90;;;;;;6180538;23;20005;-82
2023/07/20 09:07:42;;;;;;;8.70;6.18;;;15.00;99.90;;;;;;6179717;23;20012;-82
2023/07/20 09:10:08;;;;;;;8.75;7.32;;;15.10;99.90;;;;;;6175159;23;20099;-83
2023/07/20 09:12:38;;;;;;;9.82;7.05;;;15.10;99.90;;;;;;6179003;23;20001;-81
2023/07/20 09:15:06;;;;;;;11.45;7.40;;;15.10;99.90;;;;;;6179305;23;20009;-81
2023/07/20 09:17:32;;;;;;;7.88;7.07;;;15.10;99.90;;;;;;6153595;23;20505;-81
2023/07/20 09:19:58;;;;;;;10.60;6.97;;;15.10;99.90;;;;;;6153205;23;19993;-81
2023/07/20 09:22:30;;;;;;;8.55;6.30;;;15.10;99.90;;;;;;6178738;23;20008;-81
2023/07/20 09:24:57;;;;;;;10.25;7.55;;;15.10;99.90;;;;;;6177862;23;20028;-82
2023/07/20 09:27:29;;;;;;;9.60;6.28;;;15.10;99.90;;;;;;6179433;23;20005;-83
2023/07/20 09:29:56;;;;;;;8.65;7.85;;;15.10;99.90;;;;;;6178094;23;20020;-82
2023/07/20 09:32:22;;;;;;;12.18;8.65;;;15.20;99.90;;;;;;6178157;23;20013;-83
2023/07/20 09:34:50;;;;;;;12.43;8.95;;;15.20;99.90;;;;;;6179329;23;20005;-81
2023/07/20 09:37:21;;;;;;;9.02;8.15;;;15.20;99.90;;;;;;6177658;23;20000;-81
2023/07/20 09:39:48;;;;;;;9.18;8.35;;;15.20;99.90;;;;;;6179356;23;19998;-84
2023/07/20 09:42:15;;;;;;;8.82;7.90;;;15.20;99.90;;;;;;6179978;23;20088;-82
2023/07/20 09:44:43;;;;;;;8.90;8.05;;;15.20;99.90;;;;;;6177534;23;20364;-81
2023/07/20 09:47:10;;;;;;;12.20;10.93;;;15.20;99.90;;;;;;6176444;23;20009;-84
2023/07/20 09:49:42;;;;;;;12.38;10.15;;;15.20;99.90;;;;;;6177795;23;20001;-84
2023/07/20 09:52:13;;;;;;;12.50;11.38;;;15.30;99.90;;;;;;6177303;23;20439;-82
2023/07/20 09:54:39;;;;;;;10.45;9.35;;;15.20;99.90;;;;;;6176173;23;20001;-82
2023/07/20 09:57:12;;;;;;;15.23;9.18;;;15.20;99.90;;;;;;6176288;23;20009;-82
2023/07/20 09:59:38;;;;;;;12.75;11.07;;;15.30;99.90;;;;;;6172938;23;20005;-83
2023/07/20 10:02:20;;;;;;;9.98;9.07;;;15.30;99.90;;;;;;6176467;23;20440;-81
2023/07/20 10:04:47;;;;;;;10.40;8.88;;;15.30;99.90;;;;;;6178659;23;20028;-79
2023/07/20 10:07:14;;;;;;;9.60;8.63;;;15.30;99.90;;;;;;6174984;23;20001;-81
2023/07/20 10:09:42;;;;;;;7.88;7.00;;;15.30;99.90;;;;;;6176590;23;20451;-81
2023/07/20 10:12:08;;;;;;;6.22;5.72;;;15.30;99.90;;;;;;6176911;23;20095;-82
2023/07/20 10:14:42;;;;;;;6.70;5.88;;;15.20;99.90;;;;;;6177581;23;20323;-80
2023/07/20 10:17:11;;;;;;;5.13;4.55;;;15.20;99.90;;;;;;6177446;23;20001;-82
2023/07/20 10:19:44;;;;;;;5.80;4.63;;;15.20;99.90;;;;;;6177707;23;19998;-83
2023/07/20 10:22:17;;;;;;;4.55;3.42;;;15.20;99.90;;;;;;6171985;23;20376;-81
2023/07/20 10:24:46;;;;;;;5.95;3.88;;;15.10;99.90;;;;;;6174659;23;20012;-80
2023/07/20 10:27:12;;;;;;;8.32;3.88;;;15.10;99.90;;;;;;6172119;23;20598;-82
2023/07/20 10:29:39;;;;;;;4.82;4.20;;;15.20;99.90;;;;;;6174163;23;20328;-82
2023/07/20 10:32:06;;;;;;;3.97;3.58;;;15.30;99.90;;;;;;6176220;23;20005;-80
2023/07/20 10:34:32;;;;;;;3.45;2.97;;;15.30;99.90;;;;;;6175796;23;20005;-82
2023/07/20 10:36:58;;;;;;;6.45;4.20;;;15.40;99.90;;;;;;6174319;23;20024;-82
2023/07/20 10:39:27;;;;;;;6.88;4.07;;;15.50;99.90;;;;;;6175805;23;20036;-82
2023/07/20 10:42:06;;;;;;;4.88;2.33;;;15.60;99.90;;;;;;6176441;23;20019;-82
2023/07/20 10:44:37;;;;;;;2.75;2.22;;;15.70;99.90;;;;;;6175438;23;20125;-81
2023/07/20 10:47:12;;;;;;;3.22;1.90;;;15.80;99.90;;;;;;6150451;23;20374;-80
2023/07/20 10:50:01;;;;;;;2.00;1.80;;;15.90;99.90;;;;;;6175825;23;20001;-81
2023/07/20 10:52:41;;;;;;;2.92;1.77;;;16.00;99.90;;;;;;6175427;23;20012;-82
2023/07/20 10:55:14;;;;;;;2.38;1.83;;;16.10;99.90;;;;;;6174117;23;20051;-79
2023/07/20 10:57:39;;;;;;;4.63;1.70;;;16.20;99.90;;;;;;6173422;23;20001;-83
2023/07/20 11:00:24;;;;;;;3.05;1.48;;;16.20;99.90;;;;;;6173250;23;20052;-82
2023/07/20 11:02:50;;;;;;;4.05;1.38;;;16.30;99.90;;;;;;6176861;23;20451;-81
2023/07/20 11:05:48;;;;;;;5.07;1.75;;;16.20;99.90;;;;;;6173339;23;20000;-81
2023/07/20 11:08:42;;;;;;;1.90;1.20;;;16.30;99.90;;;;;;6093342;23;20005;-80
2023/07/20 11:11:25;;;;;;;3.60;1.50;;;16.40;99.90;;;;;;6175485;23;20428;-81
2023/07/20 11:14:11;;;;;;;7.45;1.60;;;16.40;99.90;;;;;;6176461;23;20443;-79
2023/07/20 11:16:43;;;;;;;1.63;1.20;;;16.40;99.90;;;;;;6175355;23;20527;-80
2023/07/20 11:19:20;;;;;;;1.55;1.40;;;16.60;99.90;;;;;;6177636;23;20005;-80
2023/07/20 11:21:49;;;;;;;2.47;1.38;;;16.70;99.90;;;;;;6150714;23;20005;-80
2023/07/20 11:24:15;;;;;;;1.95;1.30;;;16.80;99.90;;;;;;6177012;23;20009;-80
2023/07/20 11:26:52;;;;;;;2.42;1.15;;;16.80;99.90;;;;;;6178225;23;20001;-82
2023/07/20 11:29:23;;;;;;;2.70;1.38;;;16.90;99.90;;;;;;6151551;23;20344;-81
2023/07/20 11:31:49;;;;;;;2.78;1.38;;;17.00;99.90;;;;;;6176769;23;20015;-81
2023/07/20 11:34:20;;;;;;;2.30;1.30;;;17.10;99.90;;;;;;6177129;23;20001;-81
2023/07/20 11:36:47;;;;;;;2.92;1.40;;;17.20;99.90;;;;;;6175728;23;20005;-82
2023/07/20 11:39:16;;;;;;;0.93;0.90;;;17.30;99.90;;;;;;6175679;23;20012;-80
2023/07/20 11:41:51;;;;;;;2.15;1.40;;;17.40;99.90;;;;;;6175831;23;20076;-85
2023/07/20 11:44:17;;;;;;;3.47;1.40;;;17.50;99.90;;;;;;6176472;23;20005;-81
2023/07/20 11:46:46;;;;;;;1.63;1.40;;;17.50;99.90;;;;;;6177551;23;20064;-80
2023/07/20 11:49:13;;;;;;;2.63;1.60;;;17.40;99.90;;;;;;6175722;23;20498;-81
2023/07/20 11:51:40;;;;;;;5.80;1.67;;;17.30;99.90;;;;;;6176439;23;20001;-83
2023/07/20 11:54:09;;;;;;;4.22;1.50;;;17.30;99.90;;;;;;6177712;23;20001;-81
2023/07/20 11:56:35;;;;;;;4.30;1.65;;;17.20;99.90;;;;;;6176258;23;20076;-83
2023/07/20 11:59:02;;;;;;;2.70;1.90;;;17.20;99.90;;;;;;6176686;23;20028;-81
2023/07/20 12:01:29;;;;;;;3.20;1.63;;;17.30;99.90;;;;;;6175427;23;20009;-81
2023/07/20 12:03:59;;;;;;;2.72;1.52;;;17.50;99.90;;;;;;6176470;23;20009;-81
2023/07/20 12:06:27;;;;;;;1.58;0.90;;;17.70;99.90;;;;;;6178324;23;20092;-81
2023/07/20 12:08:56;;;;;;;1.95;1.25;;;17.80;99.90;;;;;;6177995;23;20013;-81
2023/07/20 12:11:33;;;;;;;2.00;1.13;;;17.80;99.90;;;;;;6179367;23;20007;-81
2023/07/20 12:13:59;;;;;;;2.17;1.17;;;17.90;99.90;;;;;;6179080;23;20381;-81
2023/07/20 12:16:28;;;;;;;2.03;1.40;;;18.10;99.90;;;;;;6178627;23;20078;-82
2023/07/20 12:19:05;;;;;;;1.45;0.90;;;18.00;99.90;;;;;;6153481;23;20025;-82
2023/07/20 12:21:36;;;;;;;1.20;1.10;;;17.90;99.90;;;;;;6177779;23;20001;-81
2023/07/20 12:24:03;;;;;;;3.28;1.45;;;17.80;99.90;;;;;;6179541;23;20085;-80
2023/07/20 12:26:30;;;;;;;2.38;1.60;;;17.80;99.90;;;;;;6173235;23;20001;-83
2023/07/20 12:28:56;;;;;;;2.15;1.48;;;18.00;99.90;;;;;;6179810;23;20007;-82
2023/07/20 12:31:23;;;;;;;2.75;1.38;;;18.10;99.90;;;;;;6176698;23;20001;-82
2023/07/20 12:33:49;;;;;;;1.95;1.00;;;18.30;99.90;;;;;;6178875;23;20045;-80
2023/07/20 12:36:15;;;;;;;1.83;1.10;;;18.50;99.90;;;;;;6178839;23;20325;-81
2023/07/20 12:38:42;;;;;;;1.10;0.90;;;18.70;99.90;;;;;;6175568;23;20009;-85
2023/07/20 12:41:12;;;;;;;1.10;1.00;;;18.70;99.90;;;;;;6174489;23;20012;-82
2023/07/20 12:43:38;;;;;;;4.00;0.80;;;18.80;99.90;;;;;;6178033;23;20009;-80
2023/07/20 12:46:04;;;;;;;1.38;0.85;;;19.00;99.90;;;;;;6177859;23;20208;-81
2023/07/20 12:48:29;;;;;;;3.78;0.85;;;19.00;99.90;;;;;;6176730;23;20009;-79
2023/07/20 12:50:55;;;;;;;1.27;0.82;;;19.00;99.90;;;;;;6178197;23;20659;-82